sensor_id;sensor_type;location;lat;lon;timestamp;P1;durP1;ratioP1;P2;durP2;ratioP2
57433;SDS011;43277;52.672;6.984;2022-07-03T00:01:49;5.28;;;1.60;;
57433;SDS011;43277;52.672;6.984;2022-07-03T00:04:15;5.93;;;1.95;;
57433;SDS011;43277;52.672;6.984;2022-07-03T00:06:41;5.93;;;1.80;;
57433;SDS011;43277;52.672;6.984;2022-07-03T00:09:06;8.00;;;2.00;;
57433;SDS011;43277;52.672;6.984;2022-07-03T00:11:32;7.55;;;2.22;;
57433;SDS011;43277;52.672;6.984;2022-07-03T00:13:58;5.72;;;2.20;;
57433;SDS011;43277;52.672;6.984;2022-07-03T00:16:24;5.93;;;2.40;;
57433;SDS011;43277;52.672;6.984;2022-07-03T00:18:49;7.03;;;2.20;;
57433;SDS011;43277;52.672;6.984;2022-07-03T00:21:28;8.65;;;2.05;;
57433;SDS011;43277;52.672;6.984;2022-07-03T00:24:02;6.57;;;2.15;;
57433;SDS011;43277;52.672;6.984;2022-07-03T00:26:39;7.63;;;2.28;;
57433;SDS011;43277;52.672;6.984;2022-07-03T00:29:08;5.60;;;2.20;;
57433;SDS011;43277;52.672;6.984;2022-07-03T00:31:35;6.90;;;2.10;;
57433;SDS011;43277;52.672;6.984;2022-07-03T00:34:01;6.95;;;1.80;;
57433;SDS011;43277;52.672;6.984;2022-07-03T00:36:37;7.45;;;1.90;;
57433;SDS011;43277;52.672;6.984;2022-07-03T00:39:03;7.05;;;2.00;;
57433;SDS011;43277;52.672;6.984;2022-07-03T00:41:31;8.55;;;2.20;;
57433;SDS011;43277;52.672;6.984;2022-07-03T00:43:57;6.13;;;2.10;;
57433;SDS011;43277;52.672;6.984;2022-07-03T00:46:24;5.57;;;1.80;;
57433;SDS011;43277;52.672;6.984;2022-07-03T00:48:51;4.53;;;1.65;;
57433;SDS011;43277;52.672;6.984;2022-07-03T00:51:27;6.70;;;1.85;;
57433;SDS011;43277;52.672;6.984;2022-07-03T00:53:57;7.07;;;1.60;;
57433;SDS011;43277;52.672;6.984;2022-07-03T00:56:30;8.60;;;2.35;;
57433;SDS011;43277;52.672;6.984;2022-07-03T00:58:57;6.57;;;1.85;;
57433;SDS011;43277;52.672;6.984;2022-07-03T01:01:25;6.93;;;2.00;;
57433;SDS011;43277;52.672;6.984;2022-07-03T01:07:07;5.22;;;1.90;;
57433;SDS011;43277;52.672;6.984;2022-07-03T01:12:23;11.10;;;1.90;;
57433;SDS011;43277;52.672;6.984;2022-07-03T01:15:07;4.22;;;1.63;;
57433;SDS011;43277;52.672;6.984;2022-07-03T01:17:39;7.38;;;2.08;;
57433;SDS011;43277;52.672;6.984;2022-07-03T01:20:11;7.05;;;2.00;;
57433;SDS011;43277;52.672;6.984;2022-07-03T01:22:44;5.57;;;1.80;;
57433;SDS011;43277;52.672;6.984;2022-07-03T01:27:44;5.43;;;1.98;;
57433;SDS011;43277;52.672;6.984;2022-07-03T01:30:20;6.63;;;1.90;;
57433;SDS011;43277;52.672;6.984;2022-07-03T01:32:52;6.00;;;2.33;;
57433;SDS011;43277;52.672;6.984;2022-07-03T01:35:24;7.15;;;2.45;;
57433;SDS011;43277;52.672;6.984;2022-07-03T01:37:54;6.78;;;2.33;;
57433;SDS011;43277;52.672;6.984;2022-07-03T01:40:20;6.72;;;2.88;;
57433;SDS011;43277;52.672;6.984;2022-07-03T01:42:48;5.55;;;2.50;;
57433;SDS011;43277;52.672;6.984;2022-07-03T01:45:16;7.28;;;2.20;;
57433;SDS011;43277;52.672;6.984;2022-07-03T01:47:45;6.22;;;2.10;;
57433;SDS011;43277;52.672;6.984;2022-07-03T01:50:13;6.18;;;2.10;;
57433;SDS011;43277;52.672;6.984;2022-07-03T01:52:40;6.88;;;1.92;;
57433;SDS011;43277;52.672;6.984;2022-07-03T01:55:08;6.60;;;1.98;;
57433;SDS011;43277;52.672;6.984;2022-07-03T01:57:37;7.30;;;2.05;;
57433;SDS011;43277;52.672;6.984;2022-07-03T02:00:11;7.65;;;2.40;;
57433;SDS011;43277;52.672;6.984;2022-07-03T02:02:42;8.15;;;2.13;;
57433;SDS011;43277;52.672;6.984;2022-07-03T02:11:08;7.95;;;2.30;;
57433;SDS011;43277;52.672;6.984;2022-07-03T02:16:19;4.78;;;2.22;;
57433;SDS011;43277;52.672;6.984;2022-07-03T02:18:48;5.10;;;2.28;;
57433;SDS011;43277;52.672;6.984;2022-07-03T02:21:24;6.72;;;2.30;;
57433;SDS011;43277;52.672;6.984;2022-07-03T02:26:42;5.30;;;2.47;;
57433;SDS011;43277;52.672;6.984;2022-07-03T02:29:15;6.82;;;2.28;;
57433;SDS011;43277;52.672;6.984;2022-07-03T02:31:46;8.05;;;2.60;;
57433;SDS011;43277;52.672;6.984;2022-07-03T02:34:22;9.10;;;2.83;;
57433;SDS011;43277;52.672;6.984;2022-07-03T02:36:49;5.75;;;2.80;;
57433;SDS011;43277;52.672;6.984;2022-07-03T02:39:27;8.43;;;2.92;;
57433;SDS011;43277;52.672;6.984;2022-07-03T02:42:00;7.25;;;2.95;;
57433;SDS011;43277;52.672;6.984;2022-07-03T02:44:34;6.57;;;3.00;;
57433;SDS011;43277;52.672;6.984;2022-07-03T02:47:27;6.15;;;2.78;;
57433;SDS011;43277;52.672;6.984;2022-07-03T02:50:06;8.10;;;2.80;;
57433;SDS011;43277;52.672;6.984;2022-07-03T02:55:26;6.13;;;2.80;;
57433;SDS011;43277;52.672;6.984;2022-07-03T02:58:21;8.02;;;2.72;;
57433;SDS011;43277;52.672;6.984;2022-07-03T03:00:56;6.68;;;3.05;;
57433;SDS011;43277;52.672;6.984;2022-07-03T03:03:32;9.23;;;3.38;;
57433;SDS011;43277;52.672;6.984;2022-07-03T03:06:00;6.30;;;3.13;;
57433;SDS011;43277;52.672;6.984;2022-07-03T03:11:08;5.45;;;2.83;;
57433;SDS011;43277;52.672;6.984;2022-07-03T03:13:41;8.60;;;3.88;;
57433;SDS011;43277;52.672;6.984;2022-07-03T03:16:14;8.32;;;3.70;;
57433;SDS011;43277;52.672;6.984;2022-07-03T03:18:40;8.15;;;4.05;;
57433;SDS011;43277;52.672;6.984;2022-07-03T03:21:10;6.97;;;3.65;;
57433;SDS011;43277;52.672;6.984;2022-07-03T03:23:42;6.50;;;3.80;;
57433;SDS011;43277;52.672;6.984;2022-07-03T03:26:32;8.65;;;3.88;;
57433;SDS011;43277;52.672;6.984;2022-07-03T03:29:01;8.68;;;3.78;;
57433;SDS011;43277;52.672;6.984;2022-07-03T03:31:26;7.38;;;3.50;;
57433;SDS011;43277;52.672;6.984;2022-07-03T03:33:52;10.27;;;4.30;;
57433;SDS011;43277;52.672;6.984;2022-07-03T03:36:20;7.68;;;4.07;;
57433;SDS011;43277;52.672;6.984;2022-07-03T03:38:47;7.20;;;3.80;;
57433;SDS011;43277;52.672;6.984;2022-07-03T03:41:13;8.77;;;4.38;;
57433;SDS011;43277;52.672;6.984;2022-07-03T03:43:40;9.90;;;4.90;;
57433;SDS011;43277;52.672;6.984;2022-07-03T03:46:09;7.55;;;4.13;;
57433;SDS011;43277;52.672;6.984;2022-07-03T03:48:35;8.48;;;4.32;;
57433;SDS011;43277;52.672;6.984;2022-07-03T03:51:01;7.03;;;4.80;;
57433;SDS011;43277;52.672;6.984;2022-07-03T03:53:27;8.07;;;4.50;;
57433;SDS011;43277;52.672;6.984;2022-07-03T03:55:58;9.82;;;5.05;;
57433;SDS011;43277;52.672;6.984;2022-07-03T03:58:27;7.93;;;4.85;;
57433;SDS011;43277;52.672;6.984;2022-07-03T04:00:54;7.60;;;4.50;;
57433;SDS011;43277;52.672;6.984;2022-07-03T04:03:21;9.02;;;4.60;;
57433;SDS011;43277;52.672;6.984;2022-07-03T04:05:46;7.07;;;4.82;;
57433;SDS011;43277;52.672;6.984;2022-07-03T04:08:12;9.85;;;5.10;;
57433;SDS011;43277;52.672;6.984;2022-07-03T04:10:38;12.13;;;5.30;;
57433;SDS011;43277;52.672;6.984;2022-07-03T04:13:04;10.23;;;5.53;;
57433;SDS011;43277;52.672;6.984;2022-07-03T04:15:29;10.82;;;5.60;;
57433;SDS011;43277;52.672;6.984;2022-07-03T04:17:55;8.02;;;5.18;;
57433;SDS011;43277;52.672;6.984;2022-07-03T04:20:21;9.35;;;5.78;;
57433;SDS011;43277;52.672;6.984;2022-07-03T04:22:49;9.18;;;5.88;;
57433;SDS011;43277;52.672;6.984;2022-07-03T04:25:15;10.57;;;6.03;;
57433;SDS011;43277;52.672;6.984;2022-07-03T04:27:41;8.75;;;5.97;;
57433;SDS011;43277;52.672;6.984;2022-07-03T04:30:07;12.30;;;5.32;;
57433;SDS011;43277;52.672;6.984;2022-07-03T04:32:35;10.35;;;6.50;;
57433;SDS011;43277;52.672;6.984;2022-07-03T04:35:02;12.15;;;5.70;;
57433;SDS011;43277;52.672;6.984;2022-07-03T04:37:28;12.70;;;6.18;;
57433;SDS011;43277;52.672;6.984;2022-07-03T04:39:53;7.80;;;5.60;;
57433;SDS011;43277;52.672;6.984;2022-07-03T04:42:19;9.15;;;5.45;;
57433;SDS011;43277;52.672;6.984;2022-07-03T04:44:44;8.30;;;5.50;;
57433;SDS011;43277;52.672;6.984;2022-07-03T04:47:10;12.13;;;5.57;;
57433;SDS011;43277;52.672;6.984;2022-07-03T04:49:36;8.90;;;4.80;;
57433;SDS011;43277;52.672;6.984;2022-07-03T04:52:01;13.60;;;5.53;;
57433;SDS011;43277;52.672;6.984;2022-07-03T04:54:27;9.10;;;4.80;;
57433;SDS011;43277;52.672;6.984;2022-07-03T04:56:53;9.13;;;5.35;;
57433;SDS011;43277;52.672;6.984;2022-07-03T04:59:18;12.73;;;5.30;;
57433;SDS011;43277;52.672;6.984;2022-07-03T05:01:44;7.95;;;5.00;;
57433;SDS011;43277;52.672;6.984;2022-07-03T05:04:10;9.45;;;5.10;;
57433;SDS011;43277;52.672;6.984;2022-07-03T05:06:35;7.30;;;4.57;;
57433;SDS011;43277;52.672;6.984;2022-07-03T05:09:01;9.85;;;5.32;;
57433;SDS011;43277;52.672;6.984;2022-07-03T05:11:26;8.68;;;5.63;;
57433;SDS011;43277;52.672;6.984;2022-07-03T05:13:52;8.65;;;5.35;;
57433;SDS011;43277;52.672;6.984;2022-07-03T05:16:18;11.80;;;5.40;;
57433;SDS011;43277;52.672;6.984;2022-07-03T05:18:43;9.77;;;5.55;;
57433;SDS011;43277;52.672;6.984;2022-07-03T05:21:09;10.32;;;5.30;;
57433;SDS011;43277;52.672;6.984;2022-07-03T05:23:34;11.57;;;5.32;;
57433;SDS011;43277;52.672;6.984;2022-07-03T05:26:00;9.77;;;5.93;;
57433;SDS011;43277;52.672;6.984;2022-07-03T05:28:25;7.82;;;5.57;;
57433;SDS011;43277;52.672;6.984;2022-07-03T05:30:51;10.70;;;5.80;;
57433;SDS011;43277;52.672;6.984;2022-07-03T05:33:17;10.57;;;5.70;;
57433;SDS011;43277;52.672;6.984;2022-07-03T05:35:42;12.65;;;6.15;;
57433;SDS011;43277;52.672;6.984;2022-07-03T05:38:08;8.07;;;5.50;;
57433;SDS011;43277;52.672;6.984;2022-07-03T05:40:33;10.73;;;5.68;;
57433;SDS011;43277;52.672;6.984;2022-07-03T05:42:59;12.38;;;5.68;;
57433;SDS011;43277;52.672;6.984;2022-07-03T05:45:24;8.63;;;5.60;;
57433;SDS011;43277;52.672;6.984;2022-07-03T05:47:50;9.30;;;5.60;;
57433;SDS011;43277;52.672;6.984;2022-07-03T05:50:16;11.75;;;5.72;;
57433;SDS011;43277;52.672;6.984;2022-07-03T05:52:41;8.30;;;6.18;;
57433;SDS011;43277;52.672;6.984;2022-07-03T05:55:07;9.55;;;5.88;;
57433;SDS011;43277;52.672;6.984;2022-07-03T05:57:33;9.35;;;5.47;;
57433;SDS011;43277;52.672;6.984;2022-07-03T05:59:58;8.25;;;5.05;;
57433;SDS011;43277;52.672;6.984;2022-07-03T06:02:24;9.23;;;5.82;;
57433;SDS011;43277;52.672;6.984;2022-07-03T06:04:49;9.20;;;5.40;;
57433;SDS011;43277;52.672;6.984;2022-07-03T06:07:15;8.70;;;5.22;;
57433;SDS011;43277;52.672;6.984;2022-07-03T06:09:41;9.48;;;4.90;;
57433;SDS011;43277;52.672;6.984;2022-07-03T06:12:08;8.27;;;5.10;;
57433;SDS011;43277;52.672;6.984;2022-07-03T06:14:34;6.47;;;4.47;;
57433;SDS011;43277;52.672;6.984;2022-07-03T06:16:59;10.52;;;4.78;;
57433;SDS011;43277;52.672;6.984;2022-07-03T06:19:25;7.25;;;4.30;;
57433;SDS011;43277;52.672;6.984;2022-07-03T06:21:51;7.78;;;4.50;;
57433;SDS011;43277;52.672;6.984;2022-07-03T06:24:17;9.30;;;4.40;;
57433;SDS011;43277;52.672;6.984;2022-07-03T06:26:42;8.55;;;3.88;;
57433;SDS011;43277;52.672;6.984;2022-07-03T06:29:08;7.80;;;4.45;;
57433;SDS011;43277;52.672;6.984;2022-07-03T06:31:33;9.23;;;3.80;;
57433;SDS011;43277;52.672;6.984;2022-07-03T06:33:59;6.70;;;3.25;;
57433;SDS011;43277;52.672;6.984;2022-07-03T06:36:25;8.63;;;3.53;;
57433;SDS011;43277;52.672;6.984;2022-07-03T06:38:50;7.03;;;3.30;;
57433;SDS011;43277;52.672;6.984;2022-07-03T06:41:16;6.95;;;3.53;;
57433;SDS011;43277;52.672;6.984;2022-07-03T06:43:42;8.05;;;3.42;;
57433;SDS011;43277;52.672;6.984;2022-07-03T06:46:07;6.38;;;2.85;;
57433;SDS011;43277;52.672;6.984;2022-07-03T06:48:33;9.25;;;3.42;;
57433;SDS011;43277;52.672;6.984;2022-07-03T06:50:58;8.35;;;3.00;;
57433;SDS011;43277;52.672;6.984;2022-07-03T06:53:24;6.50;;;3.22;;
57433;SDS011;43277;52.672;6.984;2022-07-03T06:55:50;7.72;;;2.70;;
57433;SDS011;43277;52.672;6.984;2022-07-03T06:58:15;7.57;;;2.67;;
57433;SDS011;43277;52.672;6.984;2022-07-03T07:00:41;7.85;;;2.83;;
57433;SDS011;43277;52.672;6.984;2022-07-03T07:03:07;7.05;;;2.83;;
57433;SDS011;43277;52.672;6.984;2022-07-03T07:05:33;6.65;;;2.38;;
57433;SDS011;43277;52.672;6.984;2022-07-03T07:07:59;7.78;;;2.03;;
57433;SDS011;43277;52.672;6.984;2022-07-03T07:10:24;5.30;;;2.10;;
57433;SDS011;43277;52.672;6.984;2022-07-03T07:12:50;5.65;;;1.83;;
57433;SDS011;43277;52.672;6.984;2022-07-03T07:15:15;9.20;;;1.73;;
57433;SDS011;43277;52.672;6.984;2022-07-03T07:17:41;7.57;;;1.98;;
57433;SDS011;43277;52.672;6.984;2022-07-03T07:20:07;8.25;;;2.00;;
57433;SDS011;43277;52.672;6.984;2022-07-03T07:22:33;8.70;;;2.05;;
57433;SDS011;43277;52.672;6.984;2022-07-03T07:24:58;6.95;;;1.90;;
57433;SDS011;43277;52.672;6.984;2022-07-03T07:27:24;6.68;;;1.55;;
57433;SDS011;43277;52.672;6.984;2022-07-03T07:29:50;5.65;;;1.55;;
57433;SDS011;43277;52.672;6.984;2022-07-03T07:32:15;6.68;;;1.70;;
57433;SDS011;43277;52.672;6.984;2022-07-03T07:34:41;6.93;;;1.80;;
57433;SDS011;43277;52.672;6.984;2022-07-03T07:37:06;5.47;;;1.55;;
57433;SDS011;43277;52.672;6.984;2022-07-03T07:39:32;8.45;;;1.80;;
57433;SDS011;43277;52.672;6.984;2022-07-03T07:41:58;8.05;;;1.73;;
57433;SDS011;43277;52.672;6.984;2022-07-03T07:44:23;5.45;;;1.70;;
57433;SDS011;43277;52.672;6.984;2022-07-03T07:46:49;5.57;;;1.50;;
57433;SDS011;43277;52.672;6.984;2022-07-03T07:49:15;6.72;;;1.60;;
57433;SDS011;43277;52.672;6.984;2022-07-03T07:51:40;6.88;;;1.60;;
57433;SDS011;43277;52.672;6.984;2022-07-03T07:54:06;5.97;;;1.73;;
57433;SDS011;43277;52.672;6.984;2022-07-03T07:56:31;4.93;;;1.40;;
57433;SDS011;43277;52.672;6.984;2022-07-03T07:58:57;5.03;;;1.40;;
57433;SDS011;43277;52.672;6.984;2022-07-03T08:01:22;7.78;;;1.80;;
57433;SDS011;43277;52.672;6.984;2022-07-03T08:04:07;8.68;;;1.63;;
57433;SDS011;43277;52.672;6.984;2022-07-03T08:06:51;5.40;;;1.30;;
57433;SDS011;43277;52.672;6.984;2022-07-03T08:09:17;6.63;;;1.60;;
57433;SDS011;43277;52.672;6.984;2022-07-03T08:11:42;6.30;;;1.88;;
57433;SDS011;43277;52.672;6.984;2022-07-03T08:14:08;6.40;;;1.70;;
57433;SDS011;43277;52.672;6.984;2022-07-03T08:16:35;6.40;;;1.92;;
57433;SDS011;43277;52.672;6.984;2022-07-03T08:19:03;6.65;;;1.73;;
57433;SDS011;43277;52.672;6.984;2022-07-03T08:21:29;6.90;;;1.80;;
57433;SDS011;43277;52.672;6.984;2022-07-03T08:23:54;6.78;;;1.70;;
57433;SDS011;43277;52.672;6.984;2022-07-03T08:26:20;4.80;;;1.20;;
57433;SDS011;43277;52.672;6.984;2022-07-03T08:28:45;6.10;;;1.50;;
57433;SDS011;43277;52.672;6.984;2022-07-03T08:31:11;6.25;;;1.58;;
57433;SDS011;43277;52.672;6.984;2022-07-03T08:33:36;5.53;;;1.80;;
57433;SDS011;43277;52.672;6.984;2022-07-03T08:36:03;6.05;;;1.60;;
57433;SDS011;43277;52.672;6.984;2022-07-03T08:38:31;6.30;;;1.50;;
57433;SDS011;43277;52.672;6.984;2022-07-03T08:40:59;5.95;;;1.92;;
57433;SDS011;43277;52.672;6.984;2022-07-03T08:43:25;6.65;;;2.00;;
57433;SDS011;43277;52.672;6.984;2022-07-03T08:45:52;7.72;;;1.95;;
57433;SDS011;43277;52.672;6.984;2022-07-03T08:48:19;7.65;;;1.85;;
57433;SDS011;43277;52.672;6.984;2022-07-03T08:50:46;7.32;;;2.42;;
57433;SDS011;43277;52.672;6.984;2022-07-03T08:53:14;6.88;;;2.00;;
57433;SDS011;43277;52.672;6.984;2022-07-03T08:55:41;6.38;;;2.20;;
57433;SDS011;43277;52.672;6.984;2022-07-03T08:58:06;5.50;;;2.20;;
57433;SDS011;43277;52.672;6.984;2022-07-03T09:00:35;7.45;;;2.20;;
57433;SDS011;43277;52.672;6.984;2022-07-03T09:03:02;7.70;;;2.13;;
57433;SDS011;43277;52.672;6.984;2022-07-03T09:05:29;6.32;;;2.35;;
57433;SDS011;43277;52.672;6.984;2022-07-03T09:07:55;6.10;;;2.05;;
57433;SDS011;43277;52.672;6.984;2022-07-03T09:10:23;6.40;;;2.08;;
57433;SDS011;43277;52.672;6.984;2022-07-03T09:12:49;6.53;;;2.30;;
57433;SDS011;43277;52.672;6.984;2022-07-03T09:15:15;8.40;;;2.42;;
57433;SDS011;43277;52.672;6.984;2022-07-03T09:18:01;6.43;;;1.80;;
57433;SDS011;43277;52.672;6.984;2022-07-03T09:20:30;6.60;;;2.47;;
57433;SDS011;43277;52.672;6.984;2022-07-03T09:23:07;8.25;;;2.13;;
57433;SDS011;43277;52.672;6.984;2022-07-03T09:28:20;7.00;;;1.80;;
57433;SDS011;43277;52.672;6.984;2022-07-03T09:30:57;8.98;;;1.98;;
57433;SDS011;43277;52.672;6.984;2022-07-03T09:33:26;7.60;;;2.22;;
57433;SDS011;43277;52.672;6.984;2022-07-03T09:35:53;7.57;;;2.33;;
57433;SDS011;43277;52.672;6.984;2022-07-03T09:38:19;11.85;;;2.88;;
57433;SDS011;43277;52.672;6.984;2022-07-03T09:40:53;6.57;;;1.90;;
57433;SDS011;43277;52.672;6.984;2022-07-03T09:43:29;7.95;;;2.63;;
57433;SDS011;43277;52.672;6.984;2022-07-03T09:45:56;8.90;;;2.17;;
57433;SDS011;43277;52.672;6.984;2022-07-03T09:48:23;7.30;;;1.70;;
57433;SDS011;43277;52.672;6.984;2022-07-03T09:50:49;6.22;;;2.05;;
57433;SDS011;43277;52.672;6.984;2022-07-03T09:53:14;8.75;;;1.92;;
57433;SDS011;43277;52.672;6.984;2022-07-03T09:55:40;6.20;;;2.10;;
57433;SDS011;43277;52.672;6.984;2022-07-03T09:58:20;9.68;;;1.98;;
57433;SDS011;43277;52.672;6.984;2022-07-03T10:00:45;7.70;;;2.05;;
57433;SDS011;43277;52.672;6.984;2022-07-03T10:03:11;5.72;;;2.30;;
57433;SDS011;43277;52.672;6.984;2022-07-03T10:05:41;5.82;;;1.85;;
57433;SDS011;43277;52.672;6.984;2022-07-03T10:08:08;6.57;;;2.47;;
57433;SDS011;43277;52.672;6.984;2022-07-03T10:10:41;6.03;;;2.17;;
57433;SDS011;43277;52.672;6.984;2022-07-03T10:13:08;7.38;;;2.28;;
57433;SDS011;43277;52.672;6.984;2022-07-03T10:15:35;6.15;;;2.15;;
57433;SDS011;43277;52.672;6.984;2022-07-03T10:18:06;7.13;;;2.45;;
57433;SDS011;43277;52.672;6.984;2022-07-03T10:20:35;6.65;;;1.67;;
57433;SDS011;43277;52.672;6.984;2022-07-03T10:23:02;5.35;;;1.58;;
57433;SDS011;43277;52.672;6.984;2022-07-03T10:25:27;6.25;;;2.03;;
57433;SDS011;43277;52.672;6.984;2022-07-03T10:27:55;9.73;;;2.10;;
57433;SDS011;43277;52.672;6.984;2022-07-03T10:30:21;7.60;;;2.20;;
57433;SDS011;43277;52.672;6.984;2022-07-03T10:32:49;8.50;;;2.15;;
57433;SDS011;43277;52.672;6.984;2022-07-03T10:35:24;6.28;;;2.30;;
57433;SDS011;43277;52.672;6.984;2022-07-03T10:40:29;6.55;;;2.10;;
57433;SDS011;43277;52.672;6.984;2022-07-03T10:43:28;7.15;;;1.65;;
57433;SDS011;43277;52.672;6.984;2022-07-03T10:46:24;5.55;;;1.83;;
57433;SDS011;43277;52.672;6.984;2022-07-03T11:05:13;6.32;;;1.55;;
57433;SDS011;43277;52.672;6.984;2022-07-03T11:20:37;7.07;;;1.27;;
57433;SDS011;43277;52.672;6.984;2022-07-03T11:23:17;5.82;;;1.33;;
57433;SDS011;43277;52.672;6.984;2022-07-03T11:36:10;4.20;;;0.98;;
57433;SDS011;43277;52.672;6.984;2022-07-03T11:38:46;3.83;;;1.10;;
57433;SDS011;43277;52.672;6.984;2022-07-03T11:41:13;4.15;;;0.90;;
57433;SDS011;43277;52.672;6.984;2022-07-03T11:44:14;5.60;;;0.82;;
57433;SDS011;43277;52.672;6.984;2022-07-03T11:46:34;3.40;;;0.90;;
57433;SDS011;43277;52.672;6.984;2022-07-03T11:49:05;3.80;;;0.98;;
57433;SDS011;43277;52.672;6.984;2022-07-03T11:51:35;6.65;;;1.05;;
57433;SDS011;43277;52.672;6.984;2022-07-03T11:54:02;6.85;;;1.20;;
57433;SDS011;43277;52.672;6.984;2022-07-03T11:56:29;4.25;;;0.85;;
57433;SDS011;43277;52.672;6.984;2022-07-03T11:58:56;4.05;;;0.90;;
57433;SDS011;43277;52.672;6.984;2022-07-03T12:06:32;3.95;;;0.95;;
57433;SDS011;43277;52.672;6.984;2022-07-03T12:12:01;4.60;;;0.70;;
57433;SDS011;43277;52.672;6.984;2022-07-03T12:16:59;4.47;;;0.93;;
57433;SDS011;43277;52.672;6.984;2022-07-03T12:19:25;7.43;;;0.95;;
57433;SDS011;43277;52.672;6.984;2022-07-03T12:21:50;4.80;;;0.98;;
57433;SDS011;43277;52.672;6.984;2022-07-03T12:24:16;3.50;;;0.93;;
57433;SDS011;43277;52.672;6.984;2022-07-03T12:26:42;6.43;;;0.93;;
57433;SDS011;43277;52.672;6.984;2022-07-03T12:29:08;5.13;;;1.08;;
57433;SDS011;43277;52.672;6.984;2022-07-03T12:34:04;4.65;;;0.80;;
57433;SDS011;43277;52.672;6.984;2022-07-03T12:36:31;4.57;;;0.90;;
57433;SDS011;43277;52.672;6.984;2022-07-03T12:38:57;7.45;;;3.78;;
57433;SDS011;43277;52.672;6.984;2022-07-03T12:41:23;5.13;;;1.20;;
57433;SDS011;43277;52.672;6.984;2022-07-03T12:43:50;8.35;;;4.38;;
57433;SDS011;43277;52.672;6.984;2022-07-03T12:46:21;5.13;;;1.63;;
57433;SDS011;43277;52.672;6.984;2022-07-03T12:48:49;5.97;;;2.80;;
57433;SDS011;43277;52.672;6.984;2022-07-03T12:54:05;4.72;;;0.93;;
57433;SDS011;43277;52.672;6.984;2022-07-03T12:56:32;9.07;;;4.70;;
57433;SDS011;43277;52.672;6.984;2022-07-03T12:58:58;20.83;;;18.63;;
57433;SDS011;43277;52.672;6.984;2022-07-03T13:01:42;22.08;;;17.65;;
57433;SDS011;43277;52.672;6.984;2022-07-03T13:04:09;9.93;;;7.20;;
57433;SDS011;43277;52.672;6.984;2022-07-03T13:06:39;5.93;;;2.28;;
57433;SDS011;43277;52.672;6.984;2022-07-03T13:09:06;4.75;;;1.25;;
57433;SDS011;43277;52.672;6.984;2022-07-03T13:11:33;4.05;;;0.80;;
57433;SDS011;43277;52.672;6.984;2022-07-03T13:14:07;3.38;;;0.75;;
57433;SDS011;43277;52.672;6.984;2022-07-03T13:19:05;5.43;;;1.10;;
57433;SDS011;43277;52.672;6.984;2022-07-03T13:21:32;3.75;;;1.00;;
57433;SDS011;43277;52.672;6.984;2022-07-03T13:23:58;3.53;;;0.90;;
57433;SDS011;43277;52.672;6.984;2022-07-03T13:26:23;3.05;;;0.95;;
57433;SDS011;43277;52.672;6.984;2022-07-03T13:28:49;3.78;;;0.90;;
57433;SDS011;43277;52.672;6.984;2022-07-03T13:31:15;6.60;;;1.10;;
57433;SDS011;43277;52.672;6.984;2022-07-03T13:33:40;5.53;;;1.00;;
57433;SDS011;43277;52.672;6.984;2022-07-03T13:36:06;3.58;;;0.93;;
57433;SDS011;43277;52.672;6.984;2022-07-03T13:38:32;4.38;;;0.93;;
57433;SDS011;43277;52.672;6.984;2022-07-03T13:40:57;3.97;;;0.90;;
57433;SDS011;43277;52.672;6.984;2022-07-03T13:43:23;4.03;;;0.70;;
57433;SDS011;43277;52.672;6.984;2022-07-03T13:45:48;3.28;;;0.65;;
57433;SDS011;43277;52.672;6.984;2022-07-03T13:48:14;5.40;;;1.00;;
57433;SDS011;43277;52.672;6.984;2022-07-03T13:50:43;6.60;;;0.90;;
57433;SDS011;43277;52.672;6.984;2022-07-03T13:53:08;3.53;;;0.70;;
57433;SDS011;43277;52.672;6.984;2022-07-03T13:55:34;4.25;;;0.85;;
57433;SDS011;43277;52.672;6.984;2022-07-03T13:58:00;3.72;;;0.85;;
57433;SDS011;43277;52.672;6.984;2022-07-03T14:00:29;4.60;;;0.93;;
57433;SDS011;43277;52.672;6.984;2022-07-03T14:02:55;8.75;;;1.70;;
57433;SDS011;43277;52.672;6.984;2022-07-03T14:05:21;9.65;;;1.30;;
57433;SDS011;43277;52.672;6.984;2022-07-03T14:07:47;9.35;;;1.02;;
57433;SDS011;43277;52.672;6.984;2022-07-03T14:10:13;2.70;;;0.80;;
57433;SDS011;43277;52.672;6.984;2022-07-03T14:12:39;4.50;;;1.58;;
57433;SDS011;43277;52.672;6.984;2022-07-03T14:15:05;5.28;;;0.90;;
57433;SDS011;43277;52.672;6.984;2022-07-03T14:17:31;4.88;;;0.93;;
57433;SDS011;43277;52.672;6.984;2022-07-03T14:19:57;4.72;;;0.98;;
57433;SDS011;43277;52.672;6.984;2022-07-03T14:22:22;4.60;;;0.90;;
57433;SDS011;43277;52.672;6.984;2022-07-03T14:24:48;5.70;;;1.08;;
57433;SDS011;43277;52.672;6.984;2022-07-03T14:27:14;6.03;;;1.30;;
57433;SDS011;43277;52.672;6.984;2022-07-03T14:29:58;5.45;;;1.00;;
57433;SDS011;43277;52.672;6.984;2022-07-03T14:32:42;3.97;;;0.85;;
57433;SDS011;43277;52.672;6.984;2022-07-03T14:35:08;4.75;;;1.00;;
57433;SDS011;43277;52.672;6.984;2022-07-03T14:37:33;4.38;;;0.82;;
57433;SDS011;43277;52.672;6.984;2022-07-03T14:39:59;4.85;;;0.95;;
57433;SDS011;43277;52.672;6.984;2022-07-03T14:42:25;5.00;;;1.05;;
57433;SDS011;43277;52.672;6.984;2022-07-03T14:44:50;6.05;;;1.52;;
57433;SDS011;43277;52.672;6.984;2022-07-03T14:47:16;3.97;;;0.90;;
57433;SDS011;43277;52.672;6.984;2022-07-03T14:49:42;3.50;;;1.10;;
57433;SDS011;43277;52.672;6.984;2022-07-03T14:52:09;4.90;;;0.77;;
57433;SDS011;43277;52.672;6.984;2022-07-03T14:54:34;3.17;;;0.80;;
57433;SDS011;43277;52.672;6.984;2022-07-03T14:57:01;4.90;;;0.98;;
57433;SDS011;43277;52.672;6.984;2022-07-03T15:02:00;2.85;;;0.75;;
57433;SDS011;43277;52.672;6.984;2022-07-03T15:05:30;3.75;;;0.90;;
57433;SDS011;43277;52.672;6.984;2022-07-03T15:07:32;3.20;;;0.98;;
57433;SDS011;43277;52.672;6.984;2022-07-03T15:12:30;6.03;;;0.82;;
57433;SDS011;43277;52.672;6.984;2022-07-03T15:14:58;4.22;;;0.90;;
57433;SDS011;43277;52.672;6.984;2022-07-03T15:17:27;4.30;;;0.90;;
57433;SDS011;43277;52.672;6.984;2022-07-03T15:19:53;3.10;;;0.88;;
57433;SDS011;43277;52.672;6.984;2022-07-03T15:22:21;4.43;;;0.90;;
57433;SDS011;43277;52.672;6.984;2022-07-03T15:24:51;4.22;;;0.95;;
57433;SDS011;43277;52.672;6.984;2022-07-03T15:27:21;4.03;;;1.10;;
57433;SDS011;43277;52.672;6.984;2022-07-03T15:29:48;4.78;;;0.82;;
57433;SDS011;43277;52.672;6.984;2022-07-03T15:32:15;4.13;;;0.90;;
57433;SDS011;43277;52.672;6.984;2022-07-03T15:34:42;3.95;;;1.10;;
57433;SDS011;43277;52.672;6.984;2022-07-03T15:51:02;3.65;;;0.90;;
57433;SDS011;43277;52.672;6.984;2022-07-03T15:53:37;2.88;;;0.80;;
57433;SDS011;43277;52.672;6.984;2022-07-03T15:56:04;6.28;;;1.40;;
57433;SDS011;43277;52.672;6.984;2022-07-03T15:58:32;3.85;;;0.80;;
57433;SDS011;43277;52.672;6.984;2022-07-03T16:00:59;4.63;;;1.10;;
57433;SDS011;43277;52.672;6.984;2022-07-03T16:03:53;5.43;;;1.40;;
57433;SDS011;43277;52.672;6.984;2022-07-03T16:06:40;7.85;;;1.20;;
57433;SDS011;43277;52.672;6.984;2022-07-03T16:09:07;3.90;;;0.93;;
57433;SDS011;43277;52.672;6.984;2022-07-03T16:11:36;4.68;;;1.00;;
57433;SDS011;43277;52.672;6.984;2022-07-03T16:14:03;4.07;;;1.10;;
57433;SDS011;43277;52.672;6.984;2022-07-03T16:16:30;3.38;;;0.98;;
57433;SDS011;43277;52.672;6.984;2022-07-03T16:18:57;3.55;;;1.00;;
57433;SDS011;43277;52.672;6.984;2022-07-03T16:21:26;3.67;;;1.10;;
57433;SDS011;43277;52.672;6.984;2022-07-03T16:23:53;3.50;;;0.98;;
57433;SDS011;43277;52.672;6.984;2022-07-03T16:26:20;3.85;;;1.00;;
57433;SDS011;43277;52.672;6.984;2022-07-03T16:28:46;3.85;;;1.00;;
57433;SDS011;43277;52.672;6.984;2022-07-03T16:31:12;5.40;;;1.13;;
57433;SDS011;43277;52.672;6.984;2022-07-03T16:34:00;6.45;;;1.50;;
57433;SDS011;43277;52.672;6.984;2022-07-03T16:36:29;6.22;;;1.33;;
57433;SDS011;43277;52.672;6.984;2022-07-03T16:39:00;3.95;;;1.00;;
57433;SDS011;43277;52.672;6.984;2022-07-03T16:41:29;7.03;;;1.27;;